Time;durP1;ratioP1;P1;durP2;ratioP2;P2;SDS_P1;SDS_P2;PMS_P1;PMS_P2;Temp;Humidity;BMP_temperature;BMP_pressure;BME280_temperature;BME280_humidity;BME280_pressure;Samples;Min_cycle;Max_cycle;Signal;HPM_P1;HPM_P2
2021/07/02 00:01:02;;;;;;;18.87;9.03;;;14.10;99.90;;;;;;5095609;28;20314;-77
2021/07/02 00:03:29;;;;;;;20.23;9.20;;;14.10;99.90;;;;;;5096076;28;20199;-75
2021/07/02 00:05:56;;;;;;;21.87;9.67;;;14.20;99.90;;;;;;5096024;28;20199;-75
2021/07/02 00:08:26;;;;;;;17.67;8.67;;;14.20;99.90;;;;;;5095860;28;20245;-76
2021/07/02 00:10:53;;;;;;;17.93;8.90;;;14.20;99.90;;;;;;5095511;28;20278;-79
2021/07/02 00:13:20;;;;;;;20.03;9.60;;;14.10;99.90;;;;;;5094599;28;20290;-76
2021/07/02 00:15:47;;;;;;;15.23;8.57;;;14.10;99.90;;;;;;5095198;28;20707;-76
2021/07/02 00:18:15;;;;;;;20.67;8.93;;;14.10;99.90;;;;;;5093952;28;20298;-75
2021/07/02 00:20:42;;;;;;;16.70;8.87;;;14.00;99.90;;;;;;5095109;28;20201;-77
2021/07/02 00:23:09;;;;;;;18.03;8.87;;;14.00;99.90;;;;;;5094861;28;20281;-76
2021/07/02 00:25:37;;;;;;;20.67;9.00;;;14.00;99.90;;;;;;5094796;28;20191;-76
2021/07/02 00:28:05;;;;;;;19.57;8.90;;;13.90;99.90;;;;;;5094770;28;20279;-75
2021/07/02 00:30:32;;;;;;;17.87;9.40;;;13.90;99.90;;;;;;5091962;28;20641;-76
2021/07/02 00:32:59;;;;;;;17.70;9.43;;;13.90;99.90;;;;;;5094525;28;20234;-76
2021/07/02 00:35:28;;;;;;;19.37;8.77;;;14.00;99.90;;;;;;5094828;28;20306;-75
2021/07/02 00:37:55;;;;;;;17.47;9.50;;;13.90;99.90;;;;;;5094234;28;20298;-75
2021/07/02 00:40:22;;;;;;;16.30;9.07;;;13.90;99.90;;;;;;5094320;28;20295;-76
2021/07/02 00:42:48;;;;;;;17.40;8.97;;;13.90;99.90;;;;;;5094228;28;20191;-75
2021/07/02 00:45:15;;;;;;;19.17;8.73;;;13.90;99.90;;;;;;5094468;28;20191;-75
2021/07/02 00:47:42;;;;;;;21.53;10.47;;;13.80;99.90;;;;;;5093789;28;20597;-75
2021/07/02 00:50:10;;;;;;;21.93;8.83;;;13.80;99.90;;;;;;5094762;28;20559;-77
2021/07/02 00:52:39;;;;;;;18.67;9.43;;;13.80;99.90;;;;;;5094843;28;20277;-76
2021/07/02 00:55:07;;;;;;;23.50;10.40;;;13.90;99.90;;;;;;5095160;28;20317;-76
2021/07/02 00:57:35;;;;;;;17.27;8.67;;;13.90;99.90;;;;;;5094406;28;20201;-76
2021/07/02 01:00:02;;;;;;;16.13;8.53;;;13.90;99.90;;;;;;5094782;28;20195;-75
2021/07/02 01:02:29;;;;;;;20.13;9.10;;;14.00;99.90;;;;;;5103702;28;20293;-77
2021/07/02 01:04:56;;;;;;;15.50;8.67;;;14.00;99.90;;;;;;5115452;28;20232;-76
2021/07/02 01:07:23;;;;;;;17.47;8.73;;;14.00;99.90;;;;;;5115105;28;20206;-78
2021/07/02 01:09:52;;;;;;;16.03;8.60;;;14.10;99.90;;;;;;5114898;28;20221;-75
2021/07/02 01:12:18;;;;;;;16.90;8.73;;;14.10;99.90;;;;;;5115280;28;20204;-74
2021/07/02 01:14:45;;;;;;;16.17;8.33;;;14.00;99.90;;;;;;5115643;28;20762;-76
2021/07/02 01:17:12;;;;;;;17.43;8.17;;;14.00;99.90;;;;;;5114971;28;20674;-76
2021/07/02 01:19:47;;;;;;;18.97;8.60;;;13.90;99.90;;;;;;5115559;28;20281;-76
2021/07/02 01:22:19;;;;;;;18.03;8.90;;;13.90;99.90;;;;;;5116119;28;20190;-77
2021/07/02 01:24:46;;;;;;;15.67;8.53;;;13.90;99.90;;;;;;5115774;28;20194;-75
2021/07/02 01:27:14;;;;;;;21.67;9.07;;;13.90;99.90;;;;;;5128000;28;20209;-75
2021/07/02 01:29:41;;;;;;;20.63;9.27;;;13.90;99.90;;;;;;5128266;28;20225;-76
2021/07/02 01:32:10;;;;;;;16.07;8.67;;;13.90;99.90;;;;;;5125737;28;20201;-76
2021/07/02 01:34:37;;;;;;;26.13;10.70;;;13.90;99.90;;;;;;5130501;28;20336;-76
2021/07/02 01:37:05;;;;;;;21.13;9.53;;;13.90;99.90;;;;;;5134456;28;20228;-76
2021/07/02 01:39:33;;;;;;;21.67;9.47;;;13.90;99.90;;;;;;5133335;28;20258;-75
2021/07/02 01:42:00;;;;;;;20.00;9.47;;;13.80;99.90;;;;;;5127962;28;20635;-76
2021/07/02 01:44:26;;;;;;;18.43;9.70;;;13.90;99.90;;;;;;5094501;28;20740;-76
2021/07/02 01:46:53;;;;;;;22.17;9.50;;;13.80;99.90;;;;;;5093775;28;20198;-75
2021/07/02 01:49:20;;;;;;;19.40;9.57;;;13.80;99.90;;;;;;5094127;28;20198;-77
2021/07/02 01:51:47;;;;;;;26.17;10.20;;;13.80;99.90;;;;;;5093856;28;20642;-77
2021/07/02 01:54:14;;;;;;;18.30;9.77;;;13.70;99.90;;;;;;5094014;28;20720;-75
2021/07/02 01:56:47;;;;;;;15.30;9.00;;;13.70;99.90;;;;;;5093472;28;20193;-77
2021/07/02 01:59:15;;;;;;;19.37;9.03;;;13.70;99.90;;;;;;5100234;28;20360;-76
2021/07/02 02:01:42;;;;;;;18.23;9.43;;;13.70;99.90;;;;;;5104073;28;20198;-77
2021/07/02 02:04:09;;;;;;;21.70;9.87;;;13.60;99.90;;;;;;5115097;28;20288;-77
2021/07/02 02:06:36;;;;;;;19.27;9.67;;;13.60;99.90;;;;;;5114113;28;20204;-76
2021/07/02 02:09:03;;;;;;;19.03;9.57;;;13.60;99.90;;;;;;5113736;28;20623;-76
2021/07/02 02:11:30;;;;;;;22.80;9.37;;;13.60;99.90;;;;;;5113369;28;20244;-77
2021/07/02 02:13:58;;;;;;;17.27;9.37;;;13.60;99.90;;;;;;5113724;28;20225;-77
2021/07/02 02:16:25;;;;;;;19.07;9.20;;;13.70;99.90;;;;;;5113234;28;20315;-76
2021/07/02 02:18:52;;;;;;;15.30;8.60;;;13.70;99.90;;;;;;5108052;28;20290;-76
2021/07/02 02:21:19;;;;;;;21.50;9.73;;;13.80;99.90;;;;;;5079653;28;20308;-75
2021/07/02 02:23:46;;;;;;;14.87;8.60;;;13.80;99.90;;;;;;5093175;28;20191;-76
2021/07/02 02:26:14;;;;;;;20.47;8.47;;;13.80;99.90;;;;;;5092560;28;20661;-77
2021/07/02 02:28:41;;;;;;;17.50;9.33;;;13.90;99.90;;;;;;5093062;28;20513;-77
2021/07/02 02:31:09;;;;;;;15.97;9.00;;;14.00;99.90;;;;;;5093001;28;20736;-75
2021/07/02 02:33:36;;;;;;;18.50;8.93;;;14.00;99.90;;;;;;5093288;28;20285;-76
2021/07/02 02:36:04;;;;;;;21.53;9.50;;;14.10;99.90;;;;;;5092915;28;20233;-76
2021/07/02 02:38:31;;;;;;;19.87;8.60;;;14.10;99.90;;;;;;5093082;28;20297;-76
2021/07/02 02:40:58;;;;;;;15.93;9.47;;;14.10;99.90;;;;;;5092806;28;20289;-76
2021/07/02 02:43:25;;;;;;;19.77;9.27;;;14.10;99.90;;;;;;5097305;28;20199;-77
2021/07/02 02:45:51;;;;;;;18.07;8.83;;;14.20;99.90;;;;;;5096786;28;20199;-76
2021/07/02 02:48:20;;;;;;;17.13;8.53;;;14.10;99.90;;;;;;5096709;28;20293;-76
2021/07/02 02:50:47;;;;;;;17.83;8.73;;;14.10;99.90;;;;;;5097669;28;20285;-76
2021/07/02 02:53:14;;;;;;;14.03;8.97;;;14.10;99.90;;;;;;5097201;28;20281;-76
2021/07/02 02:55:40;;;;;;;13.63;8.17;;;14.20;99.90;;;;;;5096534;28;20289;-75
2021/07/02 02:58:07;;;;;;;16.87;8.40;;;14.20;99.90;;;;;;5096999;28;20222;-78
2021/07/02 03:00:34;;;;;;;17.93;8.83;;;14.20;99.90;;;;;;5096578;28;20230;-76
2021/07/02 03:03:01;;;;;;;16.00;8.37;;;14.20;99.90;;;;;;5110342;28;20285;-76
2021/07/02 03:05:30;;;;;;;19.67;7.70;;;14.20;99.90;;;;;;5117150;28;20233;-76
2021/07/02 03:07:56;;;;;;;18.47;8.57;;;14.20;99.90;;;;;;5117249;28;20194;-76
2021/07/02 03:10:24;;;;;;;17.63;8.73;;;14.20;99.90;;;;;;5117189;28;20279;-76
2021/07/02 03:12:51;;;;;;;20.03;9.27;;;14.20;99.90;;;;;;5116800;28;20627;-76
2021/07/02 03:15:18;;;;;;;18.30;8.93;;;14.10;99.90;;;;;;5117046;28;20318;-77
2021/07/02 03:17:45;;;;;;;17.47;8.50;;;14.00;99.90;;;;;;5116633;28;20209;-76
2021/07/02 03:20:12;;;;;;;17.43;9.03;;;13.80;99.90;;;;;;5116819;28;20205;-77
2021/07/02 03:22:41;;;;;;;15.23;8.20;;;13.80;99.90;;;;;;5116510;28;20192;-75
2021/07/02 03:25:10;;;;;;;19.03;8.43;;;13.90;99.90;;;;;;5116918;28;20202;-74
2021/07/02 03:27:37;;;;;;;14.10;7.97;;;13.80;99.90;;;;;;5116660;28;20633;-77
2021/07/02 03:30:05;;;;;;;13.00;8.20;;;13.80;99.90;;;;;;5117044;28;20201;-77
2021/07/02 03:32:32;;;;;;;13.37;8.50;;;13.60;99.90;;;;;;5116774;28;20221;-76
2021/07/02 03:34:58;;;;;;;14.77;8.70;;;13.60;99.90;;;;;;5116708;28;20222;-76
2021/07/02 03:37:25;;;;;;;18.10;9.27;;;13.50;99.90;;;;;;5116348;28;20284;-76
2021/07/02 03:39:53;;;;;;;16.43;8.67;;;13.40;99.90;;;;;;5116572;28;20208;-78
2021/07/02 03:42:20;;;;;;;16.87;8.80;;;13.50;99.90;;;;;;5116643;28;20202;-76
2021/07/02 03:44:47;;;;;;;18.17;9.03;;;13.50;99.90;;;;;;5115976;28;20203;-76
2021/07/02 03:47:14;;;;;;;19.50;8.50;;;13.40;99.90;;;;;;5116310;28;20292;-76
2021/07/02 03:49:41;;;;;;;17.47;9.30;;;13.40;99.90;;;;;;5108851;28;20716;-76
2021/07/02 03:52:08;;;;;;;21.97;9.53;;;13.40;99.90;;;;;;5095662;28;20674;-76
2021/07/02 03:54:35;;;;;;;15.97;8.73;;;13.30;99.90;;;;;;5095340;28;20195;-77
2021/07/02 03:57:13;;;;;;;17.20;8.60;;;13.30;99.90;;;;;;5095094;28;20223;-76
2021/07/02 03:59:41;;;;;;;17.83;8.67;;;13.30;99.90;;;;;;5095626;28;20563;-77
2021/07/02 04:02:08;;;;;;;20.97;8.30;;;13.40;99.90;;;;;;5102113;28;20259;-76
2021/07/02 04:04:35;;;;;;;14.17;8.83;;;13.40;99.90;;;;;;5116057;28;20292;-76
2021/07/02 04:07:03;;;;;;;16.53;8.47;;;13.40;99.90;;;;;;5115909;27;20741;-76
2021/07/02 04:09:30;;;;;;;16.43;8.63;;;13.40;99.90;;;;;;5115683;28;20297;-76
2021/07/02 04:11:57;;;;;;;14.90;8.67;;;13.40;99.90;;;;;;5097659;28;20221;-77
2021/07/02 04:14:25;;;;;;;20.57;9.47;;;13.40;99.90;;;;;;5095984;28;20286;-75
2021/07/02 04:16:52;;;;;;;22.00;8.90;;;13.40;99.90;;;;;;5094827;28;20224;-75
2021/07/02 04:19:19;;;;;;;17.73;8.73;;;13.30;99.90;;;;;;5095591;28;20206;-77
2021/07/02 04:21:47;;;;;;;18.53;8.70;;;13.40;99.90;;;;;;5095015;28;20297;-75
2021/07/02 04:24:13;;;;;;;20.17;9.20;;;13.40;99.90;;;;;;5095114;28;20286;-76
2021/07/02 04:26:40;;;;;;;16.97;8.60;;;13.40;99.90;;;;;;5095246;28;20676;-76
2021/07/02 04:29:07;;;;;;;17.77;9.00;;;13.50;99.90;;;;;;5095582;28;20226;-76
2021/07/02 04:31:36;;;;;;;23.03;9.40;;;13.50;99.90;;;;;;5095207;28;20195;-75
2021/07/02 04:34:03;;;;;;;15.10;10.00;;;13.60;99.90;;;;;;5094741;28;20199;-75
2021/07/02 04:36:30;;;;;;;21.17;9.63;;;13.70;99.90;;;;;;5093780;28;20269;-76
2021/07/02 04:38:57;;;;;;;20.60;10.17;;;13.80;99.90;;;;;;5094611;28;20606;-76
2021/07/02 04:41:24;;;;;;;19.90;9.70;;;13.90;99.90;;;;;;5094350;28;20721;-77
2021/07/02 04:43:51;;;;;;;19.23;9.53;;;14.10;99.90;;;;;;5094837;28;20202;-76
2021/07/02 04:46:19;;;;;;;15.80;8.77;;;14.30;99.90;;;;;;5094634;28;20607;-77
2021/07/02 04:48:47;;;;;;;22.50;9.37;;;14.50;99.90;;;;;;5094873;28;20225;-76
2021/07/02 04:51:14;;;;;;;18.00;7.70;;;14.70;99.90;;;;;;5095446;28;20195;-76
2021/07/02 04:53:42;;;;;;;16.93;7.87;;;14.90;99.90;;;;;;5092952;28;20634;-77
2021/07/02 04:56:12;;;;;;;14.83;7.90;;;15.10;99.90;;;;;;5095275;28;20226;-75
2021/07/02 04:58:39;;;;;;;15.50;7.87;;;15.30;99.90;;;;;;5094695;28;20222;-76
2021/07/02 05:01:06;;;;;;;16.37;8.03;;;15.60;99.90;;;;;;5095364;28;20296;-76
2021/07/02 05:03:32;;;;;;;13.70;8.13;;;15.90;99.90;;;;;;5112405;28;20198;-76
2021/07/02 05:06:02;;;;;;;17.97;7.50;;;16.10;99.90;;;;;;5114052;28;20285;-76
2021/07/02 05:08:29;;;;;;;18.17;8.33;;;16.20;99.90;;;;;;5115933;28;20194;-77
2021/07/02 05:10:56;;;;;;;13.93;8.23;;;16.30;99.90;;;;;;5115829;28;20201;-76
2021/07/02 05:13:23;;;;;;;15.87;7.70;;;16.30;99.90;;;;;;5107448;28;20205;-77
2021/07/02 05:15:50;;;;;;;17.37;8.17;;;16.30;99.90;;;;;;5094184;28;20313;-76
2021/07/02 05:18:17;;;;;;;14.80;8.03;;;16.40;99.90;;;;;;5098989;28;20289;-76
2021/07/02 05:20:45;;;;;;;16.63;7.67;;;16.60;99.90;;;;;;5095409;28;20245;-76
2021/07/02 05:23:14;;;;;;;15.70;8.17;;;16.70;99.90;;;;;;5088939;28;20752;-77
2021/07/02 05:25:41;;;;;;;16.93;8.33;;;16.90;99.90;;;;;;5093863;28;20249;-76
2021/07/02 05:28:08;;;;;;;24.83;9.73;;;17.00;99.90;;;;;;5094012;28;20624;-75
2021/07/02 05:30:34;;;;;;;17.97;8.60;;;16.90;99.90;;;;;;5093554;28;20285;-75
2021/07/02 05:33:02;;;;;;;17.87;8.40;;;17.00;99.90;;;;;;5093909;28;20281;-77
2021/07/02 05:35:28;;;;;;;18.70;9.00;;;17.00;99.90;;;;;;5094199;28;20290;-76
2021/07/02 05:37:55;;;;;;;16.80;7.80;;;17.10;99.90;;;;;;5093585;28;20226;-76
2021/07/02 05:40:24;;;;;;;18.37;8.07;;;17.10;99.90;;;;;;5093195;28;20740;-76
2021/07/02 05:42:50;;;;;;;16.60;7.93;;;17.20;99.90;;;;;;5092908;28;20213;-76
2021/07/02 05:45:18;;;;;;;16.03;7.60;;;17.10;99.90;;;;;;5093047;28;20587;-76
2021/07/02 05:47:48;;;;;;;17.23;8.43;;;17.20;99.90;;;;;;5093189;28;20187;-76
2021/07/02 05:50:16;;;;;;;15.13;8.70;;;17.30;99.90;;;;;;5092809;28;20664;-78
2021/07/02 05:52:43;;;;;;;19.40;8.47;;;17.50;99.90;;;;;;5093728;28;20199;-76
2021/07/02 05:55:12;;;;;;;16.80;8.87;;;17.70;99.90;;;;;;5093723;28;20739;-76
2021/07/02 05:57:40;;;;;;;18.57;8.00;;;17.80;99.90;;;;;;5092892;28;20222;-76
2021/07/02 06:00:09;;;;;;;17.73;8.60;;;17.90;99.90;;;;;;5093642;28;20226;-76
2021/07/02 06:02:36;;;;;;;18.90;9.20;;;18.10;99.90;;;;;;5103779;28;20725;-76
2021/07/02 06:05:04;;;;;;;18.40;8.80;;;18.20;99.90;;;;;;5114058;28;20277;-77
2021/07/02 06:07:42;;;;;;;18.87;9.50;;;18.30;99.90;;;;;;5113858;28;20194;-77
2021/07/02 06:10:11;;;;;;;17.87;8.97;;;18.30;99.90;;;;;;5101391;28;20199;-77
2021/07/02 06:12:38;;;;;;;20.07;9.43;;;18.40;99.90;;;;;;5081520;28;20278;-77
2021/07/02 06:15:07;;;;;;;21.93;9.67;;;18.50;99.90;;;;;;5073059;28;20551;-77
2021/07/02 06:17:34;;;;;;;18.13;9.70;;;18.70;99.90;;;;;;5091486;28;20310;-76
2021/07/02 06:20:01;;;;;;;19.80;10.13;;;18.80;99.90;;;;;;5092661;28;20195;-77
2021/07/02 06:22:27;;;;;;;19.83;9.77;;;19.00;99.90;;;;;;5092957;28;20234;-75
2021/07/02 06:24:54;;;;;;;19.60;10.10;;;19.30;99.90;;;;;;5093263;28;20248;-78
2021/07/02 06:27:21;;;;;;;18.63;9.93;;;19.50;99.90;;;;;;5092785;28;20679;-78
2021/07/02 06:29:48;;;;;;;22.07;11.07;;;19.80;99.90;;;;;;5073552;28;20191;-77
2021/07/02 06:32:16;;;;;;;20.80;10.53;;;19.90;99.90;;;;;;5073096;28;20286;-78
2021/07/02 06:34:43;;;;;;;19.53;10.27;;;20.00;99.90;;;;;;5072447;28;20282;-77
2021/07/02 06:37:10;;;;;;;19.90;10.10;;;20.30;99.90;;;;;;5072265;28;20255;-77
2021/07/02 06:39:37;;;;;;;22.23;11.57;;;20.50;99.90;;;;;;5072893;28;20232;-78
2021/07/02 06:42:05;;;;;;;18.90;10.87;;;20.60;99.90;;;;;;5072922;28;20287;-78
2021/07/02 06:44:32;;;;;;;17.57;11.00;;;20.70;99.90;;;;;;5090111;28;20285;-78
2021/07/02 06:46:59;;;;;;;20.00;12.10;;;20.80;99.90;;;;;;5093254;28;20191;-76
2021/07/02 06:49:28;;;;;;;20.97;11.20;;;20.80;99.90;;;;;;5106903;28;20220;-76
2021/07/02 06:51:55;;;;;;;18.70;11.77;;;20.80;99.90;;;;;;5103685;28;20601;-77
2021/07/02 06:54:21;;;;;;;20.60;11.80;;;21.00;99.90;;;;;;5092195;28;20685;-76
2021/07/02 06:57:03;;;;;;;17.07;11.70;;;21.10;99.90;;;;;;5090908;28;20211;-77
2021/07/02 06:59:32;;;;;;;19.27;11.82;;;21.40;99.90;;;;;;5083461;28;20192;-77
2021/07/02 07:01:59;;;;;;;19.52;11.50;;;21.80;99.90;;;;;;5085621;28;20701;-77
2021/07/02 07:04:34;;;;;;;22.05;12.02;;;21.90;99.90;;;;;;5091743;28;20291;-78
2021/07/02 07:07:01;;;;;;;19.85;12.25;;;22.00;99.90;;;;;;5087181;28;20222;-78
2021/07/02 07:09:28;;;;;;;21.42;12.02;;;22.40;99.90;;;;;;5092261;28;20272;-78
2021/07/02 07:11:56;;;;;;;22.10;11.68;;;22.90;99.90;;;;;;5092083;28;20191;-76
2021/07/02 07:14:23;;;;;;;23.30;12.55;;;23.70;99.90;;;;;;5091806;28;20544;-77
2021/07/02 07:16:50;;;;;;;19.77;12.45;;;24.10;99.90;;;;;;5088796;28;20595;-75
2021/07/02 07:19:17;;;;;;;20.33;11.82;;;24.50;99.90;;;;;;5082853;28;20430;-78
2021/07/02 07:21:45;;;;;;;18.27;12.90;;;24.80;99.90;;;;;;5082756;28;20261;-80
2021/07/02 07:24:13;;;;;;;18.15;12.27;;;25.90;99.90;;;;;;5086454;28;20242;-76
2021/07/02 07:26:39;;;;;;;21.90;12.45;;;26.90;99.90;;;;;;5091326;28;20298;-77
2021/07/02 07:29:06;;;;;;;22.45;11.60;;;27.50;99.90;;;;;;5094061;28;20278;-77
2021/07/02 07:31:33;;;;;;;20.08;11.52;;;28.90;99.90;;;;;;5094722;28;20618;-78
2021/07/02 07:34:01;;;;;;;17.85;12.23;;;29.70;99.90;;;;;;5094389;28;20286;-77
2021/07/02 07:36:29;;;;;;;21.15;12.40;;;31.10;99.90;;;;;;5094003;28;20622;-77
2021/07/02 07:38:58;;;;;;;16.30;11.82;;;32.60;99.90;;;;;;5093164;28;20183;-76
2021/07/02 07:41:25;;;;;;;14.88;12.10;;;32.40;99.90;;;;;;5094073;28;20282;-78
2021/07/02 07:43:52;;;;;;;14.98;11.43;;;34.00;99.90;;;;;;5094008;28;20290;-78
2021/07/02 07:46:20;;;;;;;16.45;10.70;;;34.00;99.90;;;;;;5094448;28;20636;-76
2021/07/02 07:48:47;;;;;;;11.50;9.85;;;33.50;99.90;;;;;;5094654;28;20557;-78
2021/07/02 07:51:29;;;;;;;15.65;10.18;;;34.40;99.90;;;;;;5095602;28;20199;-76
2021/07/02 07:53:58;;;;;;;15.32;8.45;;;35.50;99.90;;;;;;5093861;28;20600;-76
2021/07/02 07:56:26;;;;;;;11.88;8.68;;;36.60;99.90;;;;;;5093203;28;20263;-78
2021/07/02 07:58:53;;;;;;;13.73;9.13;;;37.00;99.90;;;;;;5094493;28;20383;-76
2021/07/02 08:01:20;;;;;;;13.50;9.00;;;38.20;99.90;;;;;;5093846;28;20195;-76
2021/07/02 08:03:47;;;;;;;10.98;7.70;;;37.70;98.20;;;;;;5092740;28;20618;-78
2021/07/02 08:06:14;;;;;;;8.85;7.13;;;37.40;98.00;;;;;;5093425;28;20210;-77
2021/07/02 08:08:41;;;;;;;12.98;8.82;;;38.20;97.20;;;;;;5093784;28;20198;-77
2021/07/02 08:11:09;;;;;;;11.57;7.47;;;37.80;96.50;;;;;;5093176;28;20191;-76
2021/07/02 08:13:36;;;;;;;9.52;6.75;;;37.80;94.60;;;;;;5092195;28;20268;-75
2021/07/02 08:16:03;;;;;;;10.85;7.70;;;38.30;94.00;;;;;;5093989;28;20209;-77
2021/07/02 08:18:31;;;;;;;11.70;7.75;;;38.70;94.40;;;;;;5093383;28;20334;-77
2021/07/02 08:20:59;;;;;;;10.48;7.90;;;38.90;93.90;;;;;;5094139;28;20560;-77
2021/07/02 08:23:26;;;;;;;14.55;10.35;;;39.20;94.10;;;;;;5093022;28;20657;-76
2021/07/02 08:25:53;;;;;;;14.07;8.43;;;39.30;92.40;;;;;;5093065;28;20661;-78
2021/07/02 08:31:07;;;;;;;11.60;6.22;;;37.40;92.80;;;;;;5093915;28;20574;-77
2021/07/02 08:33:34;;;;;;;11.38;7.57;;;36.00;94.20;;;;;;5094620;28;20214;-79
2021/07/02 08:36:00;;;;;;;10.18;6.90;;;35.10;94.10;;;;;;5093565;28;20282;-78
2021/07/02 08:38:28;;;;;;;7.93;5.75;;;35.30;96.00;;;;;;5091812;28;20243;-77
2021/07/02 08:40:56;;;;;;;9.38;5.88;;;36.20;94.90;;;;;;5089946;28;20237;-78
2021/07/02 08:43:25;;;;;;;8.63;5.53;;;37.60;94.20;;;;;;5092557;28;20530;-76
2021/07/02 08:45:54;;;;;;;6.68;5.50;;;37.70;92.80;;;;;;5094097;28;20211;-78
2021/07/02 08:48:23;;;;;;;8.60;6.03;;;37.90;91.40;;;;;;5094192;28;20199;-78
2021/07/02 08:50:53;;;;;;;8.55;5.78;;;38.20;91.90;;;;;;5095702;28;20669;-76
2021/07/02 08:53:20;;;;;;;11.15;5.68;;;37.50;91.40;;;;;;5092912;28;20199;-78
2021/07/02 08:55:47;;;;;;;10.57;6.22;;;36.50;91.10;;;;;;5091047;28;20357;-78
2021/07/02 08:58:15;;;;;;;14.73;6.43;;;36.20;92.20;;;;;;5092620;28;20309;-77
2021/07/02 09:00:45;;;;;;;7.97;6.13;;;36.10;91.50;;;;;;5092134;28;20452;-78
2021/07/02 09:03:27;;;;;;;7.47;5.72;;;36.70;91.70;;;;;;5092181;28;22234;-77
2021/07/02 09:05:54;;;;;;;13.07;5.80;;;37.40;91.70;;;;;;5093096;28;20278;-76
2021/07/02 09:08:24;;;;;;;8.48;6.28;;;37.30;91.80;;;;;;5090372;28;20213;-77
2021/07/02 09:10:52;;;;;;;9.57;6.15;;;38.00;91.10;;;;;;5101283;28;20610;-77
2021/07/02 09:13:19;;;;;;;10.25;6.97;;;37.80;91.30;;;;;;5093602;28;20282;-76
2021/07/02 09:15:49;;;;;;;9.98;6.50;;;39.30;93.10;;;;;;5092057;28;20661;-77
2021/07/02 09:18:18;;;;;;;10.90;6.38;;;39.30;90.40;;;;;;5091220;28;20250;-77
2021/07/02 09:20:46;;;;;;;9.85;6.43;;;39.30;90.50;;;;;;5092021;28;20680;-78
2021/07/02 09:23:15;;;;;;;12.30;7.03;;;38.50;91.70;;;;;;5092562;28;20240;-78
2021/07/02 09:25:47;;;;;;;12.90;7.72;;;37.40;90.40;;;;;;5089706;28;20338;-77
2021/07/02 09:28:16;;;;;;;14.48;8.35;;;36.30;91.40;;;;;;5092364;28;20221;-78
2021/07/02 09:30:45;;;;;;;10.65;7.32;;;35.50;91.50;;;;;;5089059;28;20286;-79
2021/07/02 09:33:15;;;;;;;11.98;8.00;;;35.00;92.70;;;;;;5091171;28;20285;-78
2021/07/02 09:35:47;;;;;;;11.07;8.45;;;33.70;93.60;;;;;;5092473;28;20533;-77
2021/07/02 09:38:16;;;;;;;12.55;7.22;;;32.80;94.00;;;;;;5089655;28;20629;-77
2021/07/02 09:40:45;;;;;;;13.10;7.88;;;32.00;96.00;;;;;;5091152;28;20229;-76
2021/07/02 09:43:13;;;;;;;11.60;7.85;;;29.90;96.60;;;;;;5092347;28;20201;-76
2021/07/02 09:45:47;;;;;;;9.23;6.97;;;29.70;98.10;;;;;;5093041;28;20191;-78
2021/07/02 09:48:18;;;;;;;9.77;6.97;;;31.50;98.90;;;;;;5092501;28;20194;-76
2021/07/02 09:50:46;;;;;;;10.82;6.85;;;32.80;97.00;;;;;;5090044;28;20209;-78
2021/07/02 09:53:18;;;;;;;8.40;6.47;;;33.90;95.70;;;;;;5090817;28;20282;-77
2021/07/02 09:55:48;;;;;;;10.27;6.68;;;32.30;95.60;;;;;;5092701;28;20194;-76
2021/07/02 09:58:17;;;;;;;10.90;7.13;;;32.20;97.90;;;;;;5092615;28;20260;-76
2021/07/02 10:00:46;;;;;;;10.18;7.28;;;33.60;96.30;;;;;;5092436;28;20333;-77
2021/07/02 10:03:15;;;;;;;11.10;7.25;;;34.30;95.00;;;;;;5084180;28;20203;-77
2021/07/02 10:05:54;;;;;;;9.15;6.93;;;36.10;94.90;;;;;;5092569;28;20236;-77
2021/07/02 10:08:24;;;;;;;8.93;6.75;;;35.80;93.00;;;;;;5093546;28;20332;-76
2021/07/02 10:10:52;;;;;;;8.85;6.95;;;35.10;93.40;;;;;;5091145;28;20255;-78
2021/07/02 10:13:21;;;;;;;11.68;7.45;;;34.10;94.80;;;;;;5093303;28;20195;-78
2021/07/02 10:15:48;;;;;;;10.38;7.53;;;33.20;94.50;;;;;;5098167;28;20229;-78
2021/07/02 10:18:17;;;;;;;8.93;7.15;;;33.80;95.10;;;;;;5113206;28;20579;-77
2021/07/02 10:20:46;;;;;;;10.02;6.95;;;34.00;94.40;;;;;;5098568;28;20229;-76
2021/07/02 10:23:17;;;;;;;14.30;7.15;;;34.10;95.60;;;;;;5091685;28;20294;-78
2021/07/02 10:25:47;;;;;;;10.60;7.25;;;31.70;95.40;;;;;;5086684;28;20214;-77
2021/07/02 10:28:14;;;;;;;9.98;7.30;;;33.10;98.20;;;;;;5102084;28;20218;-78
2021/07/02 10:30:42;;;;;;;12.05;7.35;;;34.50;96.80;;;;;;5098516;28;20634;-76
2021/07/02 10:33:10;;;;;;;8.77;7.30;;;36.50;95.30;;;;;;5099803;28;20195;-77
2021/07/02 10:35:43;;;;;;;10.68;7.85;;;36.40;93.80;;;;;;5092267;28;20199;-76
2021/07/02 10:38:11;;;;;;;9.85;7.20;;;35.60;93.60;;;;;;5094181;28;20301;-77
2021/07/02 10:40:40;;;;;;;10.70;7.00;;;36.00;94.50;;;;;;5092518;28;20218;-77
2021/07/02 10:43:09;;;;;;;12.23;6.80;;;36.60;93.20;;;;;;5091742;28;20201;-76
2021/07/02 10:45:37;;;;;;;12.18;8.55;;;37.50;93.20;;;;;;5090224;28;20274;-78
2021/07/02 10:48:04;;;;;;;12.95;7.55;;;38.30;92.20;;;;;;5090668;28;20199;-75
2021/07/02 10:50:43;;;;;;;10.90;8.52;;;38.60;91.30;;;;;;5090270;28;20285;-77
2021/07/02 10:53:30;;;;;;;13.75;8.35;;;37.20;91.90;;;;;;5090578;28;20218;-78
2021/07/02 10:55:58;;;;;;;14.90;8.23;;;35.60;93.40;;;;;;5090948;28;20616;-77
2021/07/02 10:58:54;;;;;;;11.18;8.27;;;36.00;93.70;;;;;;5091704;28;20695;-77
2021/07/02 11:01:21;;;;;;;10.65;7.60;;;36.90;92.50;;;;;;5091953;28;20207;-78
2021/07/02 11:03:48;;;;;;;9.27;6.70;;;37.30;92.10;;;;;;5095430;28;20230;-78
2021/07/02 11:06:41;;;;;;;10.15;8.25;;;37.40;93.00;;;;;;5095956;28;20202;-77
2021/07/02 11:09:09;;;;;;;12.23;7.65;;;35.60;91.90;;;;;;5096072;28;20290;-77
2021/07/02 11:12:09;;;;;;;9.90;7.68;;;35.10;94.20;;;;;;5095462;28;20297;-76
2021/07/02 11:15:24;;;;;;;11.35;8.05;;;36.30;93.40;;;;;;5096227;28;20564;-78
2021/07/02 11:17:52;;;;;;;13.65;9.13;;;36.80;92.70;;;;;;5096074;28;20676;-76
2021/07/02 11:20:30;;;;;;;12.20;9.05;;;36.40;92.00;;;;;;5096680;28;20595;-76
2021/07/02 11:23:19;;;;;;;11.60;9.10;;;36.00;91.30;;;;;;5096449;28;20248;-79
2021/07/02 11:25:50;;;;;;;16.15;8.32;;;34.80;92.40;;;;;;5097449;28;20230;-78
2021/07/02 11:28:32;;;;;;;12.38;8.70;;;34.30;94.80;;;;;;5097366;28;20207;-75
2021/07/02 11:31:03;;;;;;;13.90;10.02;;;35.00;94.30;;;;;;5085909;28;20601;-79
2021/07/02 11:33:31;;;;;;;12.35;9.93;;;34.20;93.10;;;;;;5105923;28;20293;-77
2021/07/02 11:36:25;;;;;;;12.13;8.07;;;35.10;92.60;;;;;;5099403;28;20736;-77
2021/07/02 11:38:56;;;;;;;10.63;8.57;;;35.80;92.90;;;;;;5092712;28;20218;-77
2021/07/02 11:41:29;;;;;;;10.70;7.70;;;36.30;92.60;;;;;;5112620;28;20215;-76
2021/07/02 11:43:58;;;;;;;10.75;8.18;;;37.10;92.40;;;;;;5107985;28;20191;-79
2021/07/02 11:46:26;;;;;;;11.90;8.70;;;37.60;91.40;;;;;;5097294;28;20231;-76
2021/07/02 11:48:54;;;;;;;8.95;7.82;;;37.10;90.10;;;;;;5096810;28;20195;-77
2021/07/02 11:51:23;;;;;;;11.13;8.23;;;35.40;92.10;;;;;;5097277;28;20223;-77
2021/07/02 11:53:51;;;;;;;8.95;7.13;;;34.30;93.60;;;;;;5097284;28;20691;-77
2021/07/02 11:56:22;;;;;;;8.80;7.50;;;34.90;94.20;;;;;;5096237;28;20314;-79
2021/07/02 11:58:51;;;;;;;10.85;7.60;;;35.70;93.90;;;;;;5096329;28;20305;-77
2021/07/02 12:01:20;;;;;;;10.93;7.90;;;37.00;92.60;;;;;;5097342;28;20302;-76
2021/07/02 12:03:49;;;;;;;13.10;7.72;;;37.10;92.50;;;;;;5096346;28;20261;-76
2021/07/02 12:06:24;;;;;;;16.05;8.88;;;37.00;92.60;;;;;;5096813;28;20273;-77
2021/07/02 12:08:54;;;;;;;11.25;8.25;;;36.20;91.00;;;;;;5096397;28;20229;-76
2021/07/02 12:11:34;;;;;;;10.90;7.32;;;34.60;93.10;;;;;;5093057;28;20222;-76
2021/07/02 12:14:02;;;;;;;10.80;7.90;;;34.20;93.40;;;;;;5093605;28;20195;-75
2021/07/02 12:16:34;;;;;;;10.10;6.57;;;35.40;93.50;;;;;;5096651;28;20279;-77
2021/07/02 12:19:01;;;;;;;13.13;8.02;;;36.50;92.20;;;;;;5095508;28;20306;-76
2021/07/02 12:21:30;;;;;;;8.07;7.13;;;36.40;91.80;;;;;;5095145;28;20680;-76
2021/07/02 12:23:59;;;;;;;12.65;7.63;;;36.60;92.20;;;;;;5094972;28;20594;-76
2021/07/02 12:26:27;;;;;;;10.35;7.70;;;36.70;91.20;;;;;;5094229;28;20267;-77
2021/07/02 12:29:02;;;;;;;9.93;7.55;;;36.50;91.60;;;;;;5094305;28;20210;-76
2021/07/02 12:31:31;;;;;;;12.20;8.00;;;37.00;91.40;;;;;;5094118;28;20194;-76
2021/07/02 12:34:00;;;;;;;12.57;8.55;;;37.00;91.40;;;;;;5079010;28;20271;-77
2021/07/02 12:36:29;;;;;;;12.60;7.68;;;34.70;91.60;;;;;;5094515;28;20740;-76
2021/07/02 12:39:02;;;;;;;10.73;7.78;;;35.30;92.40;;;;;;5094536;28;20259;-76
2021/07/02 12:41:36;;;;;;;9.48;7.38;;;35.90;92.60;;;;;;5094770;28;20256;-75
2021/07/02 12:44:05;;;;;;;9.85;8.10;;;35.60;92.50;;;;;;5094497;28;20665;-78
2021/07/02 12:46:32;;;;;;;10.32;7.22;;;34.50;92.00;;;;;;5087920;28;20261;-75